sensor_id;sensor_type;location;lat;lon;timestamp;pressure;altitude;pressure_sealevel;temperature;humidity
77706;BME280;66874;45.274;5.880;2023-03-13T00:00:15;99044.09;;;9.45;72.27
77706;BME280;66874;45.274;5.880;2023-03-13T00:02:41;99044.09;;;9.45;72.44
77706;BME280;66874;45.274;5.880;2023-03-13T00:05:10;99049.31;;;9.46;72.32
77706;BME280;66874;45.274;5.880;2023-03-13T00:07:35;99039.72;;;9.47;72.42
77706;BME280;66874;45.274;5.880;2023-03-13T00:10:01;99041.44;;;9.49;72.57
77706;BME280;66874;45.274;5.880;2023-03-13T00:12:28;99043.16;;;9.50;72.50
77706;BME280;66874;45.274;5.880;2023-03-13T00:14:53;99044.00;;;9.51;72.54
77706;BME280;66874;45.274;5.880;2023-03-13T00:17:18;99052.75;;;9.48;72.55
77706;BME280;66874;45.274;5.880;2023-03-13T00:19:44;99053.59;;;9.49;72.80
77706;BME280;66874;45.274;5.880;2023-03-13T00:22:09;99055.38;;;9.47;72.57
77706;BME280;66874;45.274;5.880;2023-03-13T00:24:34;99060.66;;;9.44;72.86
77706;BME280;66874;45.274;5.880;2023-03-13T00:27:00;99063.22;;;9.45;72.78
77706;BME280;66874;45.274;5.880;2023-03-13T00:29:28;99064.97;;;9.45;72.81
77706;BME280;66874;45.274;5.880;2023-03-13T03:01:30;98979.25;;;9.73;75.01
77706;BME280;66874;45.274;5.880;2023-03-13T03:03:55;98981.84;;;9.73;75.06
77706;BME280;66874;45.274;5.880;2023-03-13T03:06:20;98969.66;;;9.73;75.30
77706;BME280;66874;45.274;5.880;2023-03-13T03:08:46;98974.03;;;9.71;75.55
77706;BME280;66874;45.274;5.880;2023-03-13T03:11:12;98980.19;;;9.69;75.50
77706;BME280;66874;45.274;5.880;2023-03-13T03:13:37;98981.91;;;9.68;75.76
77706;BME280;66874;45.274;5.880;2023-03-13T03:16:07;98979.34;;;9.67;75.92
77706;BME280;66874;45.274;5.880;2023-03-13T03:18:34;98981.13;;;9.63;75.90
77706;BME280;66874;45.274;5.880;2023-03-13T03:20:59;98991.66;;;9.59;76.16
77706;BME280;66874;45.274;5.880;2023-03-13T03:23:25;98990.97;;;9.47;76.50
77706;BME280;66874;45.274;5.880;2023-03-13T03:25:50;98993.72;;;9.38;76.67
77706;BME280;66874;45.274;5.880;2023-03-13T03:28:16;98995.56;;;9.32;76.83
77706;BME280;66874;45.274;5.880;2023-03-13T06:31:06;98864.56;;;8.51;77.55
77706;BME280;66874;45.274;5.880;2023-03-13T06:33:32;98862.84;;;8.50;77.43
77706;BME280;66874;45.274;5.880;2023-03-13T06:35:59;98862.84;;;8.50;77.57
77706;BME280;66874;45.274;5.880;2023-03-13T06:38:26;98866.28;;;8.53;77.59
77706;BME280;66874;45.274;5.880;2023-03-13T06:40:52;98867.03;;;8.60;77.50
77706;BME280;66874;45.274;5.880;2023-03-13T06:43:18;98862.63;;;8.65;77.39
77706;BME280;66874;45.274;5.880;2023-03-13T06:45:43;98867.78;;;8.70;77.26
77706;BME280;66874;45.274;5.880;2023-03-13T06:48:09;98864.25;;;8.74;77.06
77706;BME280;66874;45.274;5.880;2023-03-13T06:50:37;98874.63;;;8.75;77.38
77706;BME280;66874;45.274;5.880;2023-03-13T06:53:03;98871.16;;;8.76;77.55
77706;BME280;66874;45.274;5.880;2023-03-13T06:55:28;98866.81;;;8.75;77.40
77706;BME280;66874;45.274;5.880;2023-03-13T06:57:53;98864.22;;;8.75;77.56
77706;BME280;66874;45.274;5.880;2023-03-13T07:00:19;98862.44;;;8.76;77.57
77706;BME280;66874;45.274;5.880;2023-03-13T07:02:45;98858.91;;;8.80;77.52
77706;BME280;66874;45.274;5.880;2023-03-13T07:05:11;98857.13;;;8.85;77.55
77706;BME280;66874;45.274;5.880;2023-03-13T07:07:39;98861.41;;;8.89;77.52
77706;BME280;66874;45.274;5.880;2023-03-13T07:10:05;98862.25;;;8.90;77.64
77706;BME280;66874;45.274;5.880;2023-03-13T07:12:30;98861.34;;;8.92;77.73
77706;BME280;66874;45.274;5.880;2023-03-13T07:14:55;98849.13;;;8.94;77.72
77706;BME280;66874;45.274;5.880;2023-03-13T07:17:21;98833.41;;;8.99;77.50
77706;BME280;66874;45.274;5.880;2023-03-13T07:19:46;98820.22;;;9.07;77.38
77706;BME280;66874;45.274;5.880;2023-03-13T07:22:12;98829.66;;;9.15;77.43
77706;BME280;66874;45.274;5.880;2023-03-13T07:24:37;98831.25;;;9.24;77.41
77706;BME280;66874;45.274;5.880;2023-03-13T07:27:03;98827.59;;;9.33;77.18
77706;BME280;66874;45.274;5.880;2023-03-13T07:29:28;98834.34;;;9.46;76.89
77706;BME280;66874;45.274;5.880;2023-03-13T07:31:53;98835.00;;;9.57;76.55
77706;BME280;66874;45.274;5.880;2023-03-13T07:34:19;98826.94;;;9.69;76.31
77706;BME280;66874;45.274;5.880;2023-03-13T07:36:44;98820.59;;;9.81;75.90
77706;BME280;66874;45.274;5.880;2023-03-13T07:39:10;98822.13;;;9.91;75.73
77706;BME280;66874;45.274;5.880;2023-03-13T07:41:35;98831.50;;;10.01;75.37
77706;BME280;66874;45.274;5.880;2023-03-13T07:44:01;98841.81;;;10.09;75.26
77706;BME280;66874;45.274;5.880;2023-03-13T07:46:26;98839.97;;;10.13;74.99
77706;BME280;66874;45.274;5.880;2023-03-13T07:48:52;98840.81;;;10.15;74.75
77706;BME280;66874;45.274;5.880;2023-03-13T07:51:22;98836.28;;;10.23;74.48
77706;BME280;66874;45.274;5.880;2023-03-13T07:53:47;98831.69;;;10.36;74.42
77706;BME280;66874;45.274;5.880;2023-03-13T07:56:15;98832.31;;;10.47;74.28
77706;BME280;66874;45.274;5.880;2023-03-13T07:58:42;98812.06;;;10.55;73.95
77706;BME280;66874;45.274;5.880;2023-03-13T08:01:16;98808.25;;;10.68;73.84
77706;BME280;66874;45.274;5.880;2023-03-13T08:03:42;98800.94;;;10.84;73.47
77706;BME280;66874;45.274;5.880;2023-03-13T08:06:10;98780.53;;;10.97;73.02
77706;BME280;66874;45.274;5.880;2023-03-13T08:08:36;98788.91;;;11.11;72.77
77706;BME280;66874;45.274;5.880;2023-03-13T08:11:08;98776.22;;;11.29;72.29
77706;BME280;66874;45.274;5.880;2023-03-13T08:13:34;98788.88;;;11.45;71.93
77706;BME280;66874;45.274;5.880;2023-03-13T08:16:05;98784.22;;;11.55;71.22
77706;BME280;66874;45.274;5.880;2023-03-13T08:18:31;98787.34;;;11.68;71.11
77706;BME280;66874;45.274;5.880;2023-03-13T08:21:04;98790.59;;;11.78;70.74
77706;BME280;66874;45.274;5.880;2023-03-13T08:23:30;98791.88;;;11.94;70.58
77706;BME280;66874;45.274;5.880;2023-03-13T08:25:55;98782.81;;;12.06;70.18
77706;BME280;66874;45.274;5.880;2023-03-13T08:28:25;98775.63;;;12.12;69.53
77706;BME280;66874;45.274;5.880;2023-03-13T08:30:50;98786.13;;;12.12;69.56
77706;BME280;66874;45.274;5.880;2023-03-13T08:33:16;98787.81;;;12.13;69.64
77706;BME280;66874;45.274;5.880;2023-03-13T08:35:41;98782.72;;;12.09;69.92
77706;BME280;66874;45.274;5.880;2023-03-13T08:38:06;98783.63;;;12.08;70.05
77706;BME280;66874;45.274;5.880;2023-03-13T08:40:32;98781.81;;;12.10;69.93
77706;BME280;66874;45.274;5.880;2023-03-13T08:42:57;98766.84;;;12.13;69.65
77706;BME280;66874;45.274;5.880;2023-03-13T08:45:23;98755.50;;;12.13;69.79
77706;BME280;66874;45.274;5.880;2023-03-13T08:47:51;98747.56;;;12.14;69.63
77706;BME280;66874;45.274;5.880;2023-03-13T08:50:17;98755.41;;;12.16;69.64
77706;BME280;66874;45.274;5.880;2023-03-13T08:52:44;98739.44;;;12.24;69.46
77706;BME280;66874;45.274;5.880;2023-03-13T08:55:09;98727.72;;;12.35;69.40
77706;BME280;66874;45.274;5.880;2023-03-13T08:57:35;98723.22;;;12.39;69.27
77706;BME280;66874;45.274;5.880;2023-03-13T09:00:00;98722.16;;;12.44;69.17
77706;BME280;66874;45.274;5.880;2023-03-13T09:02:25;98714.13;;;12.49;69.10
77706;BME280;66874;45.274;5.880;2023-03-13T09:04:51;98701.66;;;12.57;69.06
77706;BME280;66874;45.274;5.880;2023-03-13T09:07:16;98690.16;;;12.60;69.05
77706;BME280;66874;45.274;5.880;2023-03-13T09:09:42;98689.31;;;12.59;68.94
77706;BME280;66874;45.274;5.880;2023-03-13T09:12:08;98692.69;;;12.63;68.81
77706;BME280;66874;45.274;5.880;2023-03-13T09:14:33;98677.63;;;12.69;68.70
77706;BME280;66874;45.274;5.880;2023-03-13T09:16:59;98672.28;;;12.73;68.76
77706;BME280;66874;45.274;5.880;2023-03-13T09:19:24;98667.72;;;12.78;68.82
77706;BME280;66874;45.274;5.880;2023-03-13T09:21:50;98657.81;;;12.86;68.96
77706;BME280;66874;45.274;5.880;2023-03-13T09:24:15;98654.91;;;12.93;69.11
77706;BME280;66874;45.274;5.880;2023-03-13T09:26:41;98648.59;;;12.99;68.96
77706;BME280;66874;45.274;5.880;2023-03-13T09:29:06;98649.31;;;13.03;68.66
77706;BME280;66874;45.274;5.880;2023-03-13T09:31:32;98640.44;;;13.07;68.66
77706;BME280;66874;45.274;5.880;2023-03-13T09:33:59;98630.63;;;13.12;68.44
77706;BME280;66874;45.274;5.880;2023-03-13T09:36:25;98623.53;;;13.14;68.17
77706;BME280;66874;45.274;5.880;2023-03-13T09:38:53;98616.41;;;13.17;68.17
77706;BME280;66874;45.274;5.880;2023-03-13T09:44:08;98606.94;;;13.37;68.06
77706;BME280;66874;45.274;5.880;2023-03-13T09:47:02;98609.25;;;13.46;67.60
77706;BME280;66874;45.274;5.880;2023-03-13T09:49:33;98609.34;;;13.43;67.67
77706;BME280;66874;45.274;5.880;2023-03-13T09:52:30;98604.66;;;13.51;67.58
77706;BME280;66874;45.274;5.880;2023-03-13T09:55:12;98592.47;;;13.72;67.25
77706;BME280;66874;45.274;5.880;2023-03-13T09:57:48;98603.03;;;13.92;67.04
77706;BME280;66874;45.274;5.880;2023-03-13T10:00:23;98590.84;;;14.34;66.50
77706;BME280;66874;45.274;5.880;2023-03-13T10:03:01;98589.75;;;14.80;65.60
77706;BME280;66874;45.274;5.880;2023-03-13T10:05:29;98590.38;;;15.25;64.54
77706;BME280;66874;45.274;5.880;2023-03-13T10:08:00;98591.09;;;15.47;63.96
77706;BME280;66874;45.274;5.880;2023-03-13T10:10:44;98564.38;;;15.55;63.89
77706;BME280;66874;45.274;5.880;2023-03-13T10:13:27;98568.13;;;15.87;63.14
77706;BME280;66874;45.274;5.880;2023-03-13T10:15:59;98563.66;;;15.89;63.00
77706;BME280;66874;45.274;5.880;2023-03-13T10:18:26;98556.97;;;15.82;62.73
77706;BME280;66874;45.274;5.880;2023-03-13T10:20:55;98538.72;;;15.58;62.29
77706;BME280;66874;45.274;5.880;2023-03-13T10:23:50;98536.81;;;15.43;62.72
77706;BME280;66874;45.274;5.880;2023-03-13T10:26:27;98531.81;;;15.56;62.94
77706;BME280;66874;45.274;5.880;2023-03-13T10:28:55;98522.31;;;16.24;62.70
77706;BME280;66874;45.274;5.880;2023-03-13T10:33:49;98494.22;;;17.23;60.56
77706;BME280;66874;45.274;5.880;2023-03-13T10:36:14;98491.53;;;17.70;59.59
77706;BME280;66874;45.274;5.880;2023-03-13T10:38:46;98486.44;;;18.13;58.57
77706;BME280;66874;45.274;5.880;2023-03-13T10:41:28;98478.94;;;18.50;56.78
77706;BME280;66874;45.274;5.880;2023-03-13T10:44:05;98478.41;;;18.88;55.77
77706;BME280;66874;45.274;5.880;2023-03-13T10:46:34;98472.53;;;19.11;54.98
77706;BME280;66874;45.274;5.880;2023-03-13T10:49:03;98468.28;;;19.36;54.63
77706;BME280;66874;45.274;5.880;2023-03-13T10:51:37;98463.28;;;19.31;54.29
77706;BME280;66874;45.274;5.880;2023-03-13T10:54:25;98450.53;;;19.50;54.16
77706;BME280;66874;45.274;5.880;2023-03-13T10:57:07;98438.31;;;19.75;53.46
77706;BME280;66874;45.274;5.880;2023-03-13T10:59:39;98433.31;;;19.70;53.25
77706;BME280;66874;45.274;5.880;2023-03-13T11:04:43;98412.72;;;20.27;52.79
77706;BME280;66874;45.274;5.880;2023-03-13T11:07:15;98413.75;;;20.75;52.30
77706;BME280;66874;45.274;5.880;2023-03-13T11:09:56;98399.66;;;20.98;50.83
77706;BME280;66874;45.274;5.880;2023-03-13T11:12:22;98385.59;;;21.09;50.84
77706;BME280;66874;45.274;5.880;2023-03-13T11:14:55;98381.66;;;21.39;49.98
77706;BME280;66874;45.274;5.880;2023-03-13T11:19:57;98373.69;;;21.74;49.17
77706;BME280;66874;45.274;5.880;2023-03-13T11:27:45;98353.59;;;21.70;47.97
77706;BME280;66874;45.274;5.880;2023-03-13T11:30:40;98344.50;;;21.61;48.14
77706;BME280;66874;45.274;5.880;2023-03-13T11:43:31;98322.94;;;21.53;47.96
77706;BME280;66874;45.274;5.880;2023-03-13T11:57:10;98268.28;;;21.72;46.82
77706;BME280;66874;45.274;5.880;2023-03-13T11:59:42;98266.34;;;21.62;46.39
77706;BME280;66874;45.274;5.880;2023-03-13T12:05:07;98244.94;;;21.53;47.48
77706;BME280;66874;45.274;5.880;2023-03-13T12:10:11;98214.34;;;22.03;46.20
77706;BME280;66874;45.274;5.880;2023-03-13T12:12:47;98202.94;;;22.01;46.00
77706;BME280;66874;45.274;5.880;2023-03-13T12:15:31;98194.50;;;22.07;45.27
77706;BME280;66874;45.274;5.880;2023-03-13T12:18:49;98183.13;;;22.16;44.69
77706;BME280;66874;45.274;5.880;2023-03-13T12:20:57;98177.22;;;22.56;44.60
77706;BME280;66874;45.274;5.880;2023-03-13T12:26:07;98138.44;;;24.18;42.71
77706;BME280;66874;45.274;5.880;2023-03-13T12:31:31;98102.56;;;25.18;41.10
77706;BME280;66874;45.274;5.880;2023-03-13T12:34:32;98091.94;;;25.36;40.72
77706;BME280;66874;45.274;5.880;2023-03-13T12:39:50;98069.28;;;26.13;39.66
77706;BME280;66874;45.274;5.880;2023-03-13T12:42:33;98048.38;;;26.34;38.48
77706;BME280;66874;45.274;5.880;2023-03-13T12:45:01;98037.66;;;26.34;38.51
77706;BME280;66874;45.274;5.880;2023-03-13T12:53:01;98022.09;;;26.99;37.26
77706;BME280;66874;45.274;5.880;2023-03-13T12:55:45;98003.31;;;27.25;36.90
77706;BME280;66874;45.274;5.880;2023-03-13T12:58:25;97978.88;;;27.45;36.39
77706;BME280;66874;45.274;5.880;2023-03-13T13:00:54;97973.22;;;27.64;36.80
77706;BME280;66874;45.274;5.880;2023-03-13T13:03:47;97947.13;;;27.91;36.10
77706;BME280;66874;45.274;5.880;2023-03-13T13:06:15;97952.94;;;27.27;36.34
77706;BME280;66874;45.274;5.880;2023-03-13T13:09:12;97938.22;;;27.40;37.23
77706;BME280;66874;45.274;5.880;2023-03-13T13:16:56;97906.50;;;29.92;32.31
77706;BME280;66874;45.274;5.880;2023-03-13T13:24:57;97879.75;;;29.28;28.76
77706;BME280;66874;45.274;5.880;2023-03-13T13:32:51;97855.47;;;27.51;28.80
77706;BME280;66874;45.274;5.880;2023-03-13T13:35:35;97852.78;;;27.27;27.99
77706;BME280;66874;45.274;5.880;2023-03-13T13:43:35;97803.59;;;27.18;28.47
77706;BME280;66874;45.274;5.880;2023-03-13T13:46:05;97790.19;;;27.43;29.42
77706;BME280;66874;45.274;5.880;2023-03-13T13:48:40;97840.06;;;27.45;28.08
77706;BME280;66874;45.274;5.880;2023-03-13T13:56:39;97755.78;;;27.46;28.00
77706;BME280;66874;45.274;5.880;2023-03-13T14:08:03;97771.75;;;26.39;28.50
77706;BME280;66874;45.274;5.880;2023-03-13T14:10:11;97770.66;;;26.23;28.33
77706;BME280;66874;45.274;5.880;2023-03-13T14:12:39;97747.41;;;25.98;29.64
77706;BME280;66874;45.274;5.880;2023-03-13T14:15:16;97754.25;;;25.92;28.42
77706;BME280;66874;45.274;5.880;2023-03-13T14:18:00;97734.66;;;25.74;28.36
77706;BME280;66874;45.274;5.880;2023-03-13T14:20:35;97750.69;;;25.84;29.49
77706;BME280;66874;45.274;5.880;2023-03-13T14:23:09;97736.59;;;25.81;28.45
77706;BME280;66874;45.274;5.880;2023-03-13T14:25:44;97745.25;;;25.75;28.73
77706;BME280;66874;45.274;5.880;2023-03-13T14:28:19;97735.44;;;25.66;29.28
77706;BME280;66874;45.274;5.880;2023-03-13T14:30:46;97750.63;;;25.57;29.24
77706;BME280;66874;45.274;5.880;2023-03-13T14:33:12;97710.91;;;25.27;28.93
77706;BME280;66874;45.274;5.880;2023-03-13T14:35:39;97723.91;;;25.22;29.34
77706;BME280;66874;45.274;5.880;2023-03-13T14:38:04;97720.00;;;25.16;28.73
77706;BME280;66874;45.274;5.880;2023-03-13T14:40:33;97711.50;;;25.21;29.01
77706;BME280;66874;45.274;5.880;2023-03-13T14:43:02;97757.78;;;25.31;28.97
77706;BME280;66874;45.274;5.880;2023-03-13T14:45:29;97734.22;;;25.17;29.50
77706;BME280;66874;45.274;5.880;2023-03-13T14:50:30;97716.88;;;24.57;29.74
77706;BME280;66874;45.274;5.880;2023-03-13T14:53:02;97721.78;;;24.34;30.81
77706;BME280;66874;45.274;5.880;2023-03-13T14:55:35;97719.59;;;24.20;30.46
77706;BME280;66874;45.274;5.880;2023-03-13T15:00:46;97724.03;;;24.02;30.57
77706;BME280;66874;45.274;5.880;2023-03-13T15:08:32;97688.09;;;23.86;31.17
77706;BME280;66874;45.274;5.880;2023-03-13T15:10:58;97716.06;;;23.82;31.62
77706;BME280;66874;45.274;5.880;2023-03-13T15:15:59;97705.56;;;23.61;31.36
77706;BME280;66874;45.274;5.880;2023-03-13T15:18:27;97672.59;;;23.53;31.54
77706;BME280;66874;45.274;5.880;2023-03-13T15:21:39;97682.84;;;23.48;31.71
77706;BME280;66874;45.274;5.880;2023-03-13T15:23:45;97671.75;;;23.43;32.03
77706;BME280;66874;45.274;5.880;2023-03-13T15:26:13;97670.81;;;23.34;32.00
77706;BME280;66874;45.274;5.880;2023-03-13T15:28:38;97671.66;;;23.25;32.24
77706;BME280;66874;45.274;5.880;2023-03-13T15:31:04;97652.72;;;23.18;33.07
77706;BME280;66874;45.274;5.880;2023-03-13T15:33:29;97655.50;;;23.17;32.90
77706;BME280;66874;45.274;5.880;2023-03-13T15:35:55;97655.66;;;23.15;32.38
77706;BME280;66874;45.274;5.880;2023-03-13T15:38:25;97670.97;;;23.13;32.43
77706;BME280;66874;45.274;5.880;2023-03-13T15:40:52;97644.16;;;23.05;32.69
77706;BME280;66874;45.274;5.880;2023-03-13T15:43:18;97640.25;;;22.99;33.05
77706;BME280;66874;45.274;5.880;2023-03-13T15:45:45;97647.69;;;22.96;32.88
77706;BME280;66874;45.274;5.880;2023-03-13T15:48:26;97668.88;;;22.87;33.03
77706;BME280;66874;45.274;5.880;2023-03-13T15:50:58;97647.09;;;22.82;33.31
77706;BME280;66874;45.274;5.880;2023-03-13T15:53:31;97643.47;;;22.83;33.76
77706;BME280;66874;45.274;5.880;2023-03-13T15:55:59;97650.47;;;22.75;33.80
77706;BME280;66874;45.274;5.880;2023-03-13T15:58:26;97614.28;;;22.72;34.13
77706;BME280;66874;45.274;5.880;2023-03-13T16:00:53;97617.91;;;22.71;34.44
77706;BME280;66874;45.274;5.880;2023-03-13T16:03:28;97648.09;;;22.72;34.03
77706;BME280;66874;45.274;5.880;2023-03-13T16:05:54;97619.72;;;22.71;34.00
77706;BME280;66874;45.274;5.880;2023-03-13T16:08:27;97637.72;;;22.69;34.71
77706;BME280;66874;45.274;5.880;2023-03-13T16:10:53;97618.22;;;22.68;34.39
77706;BME280;66874;45.274;5.880;2023-03-13T16:13:19;97613.59;;;22.60;35.47
77706;BME280;66874;45.274;5.880;2023-03-13T16:15:46;97628.16;;;22.56;35.68
77706;BME280;66874;45.274;5.880;2023-03-13T16:18:23;97610.91;;;22.51;35.82
77706;BME280;66874;45.274;5.880;2023-03-13T16:20:49;97624.81;;;22.83;35.10
77706;BME280;66874;45.274;5.880;2023-03-13T16:23:15;97596.03;;;22.97;35.09
77706;BME280;66874;45.274;5.880;2023-03-13T16:25:42;97578.75;;;23.10;34.57
77706;BME280;66874;45.274;5.880;2023-03-13T16:28:12;97582.41;;;23.00;34.73
77706;BME280;66874;45.274;5.880;2023-03-13T16:30:38;97578.47;;;22.94;35.07
77706;BME280;66874;45.274;5.880;2023-03-13T16:33:11;97599.09;;;22.82;35.39
77706;BME280;66874;45.274;5.880;2023-03-13T16:35:37;97581.16;;;22.75;35.94
77706;BME280;66874;45.274;5.880;2023-03-13T16:38:03;97580.88;;;22.78;35.43
77706;BME280;66874;45.274;5.880;2023-03-13T16:40:32;97579.47;;;22.74;35.28
77706;BME280;66874;45.274;5.880;2023-03-13T16:42:58;97595.31;;;22.56;35.35
77706;BME280;66874;45.274;5.880;2023-03-13T16:45:24;97592.66;;;22.46;35.67
77706;BME280;66874;45.274;5.880;2023-03-13T16:47:50;97585.50;;;22.37;36.03
77706;BME280;66874;45.274;5.880;2023-03-13T16:50:25;97579.63;;;22.33;35.77
77706;BME280;66874;45.274;5.880;2023-03-13T16:52:53;97587.19;;;22.28;36.51
77706;BME280;66874;45.274;5.880;2023-03-13T16:55:20;97576.25;;;22.22;36.57
77706;BME280;66874;45.274;5.880;2023-03-13T16:57:46;97578.47;;;22.16;36.57
77706;BME280;66874;45.274;5.880;2023-03-13T17:00:14;97585.03;;;22.12;36.68
77706;BME280;66874;45.274;5.880;2023-03-13T17:02:40;97589.38;;;22.04;37.21
77706;BME280;66874;45.274;5.880;2023-03-13T17:05:06;97591.03;;;21.95;37.06
77706;BME280;66874;45.274;5.880;2023-03-13T17:07:32;97594.38;;;21.87;37.50
77706;BME280;66874;45.274;5.880;2023-03-13T17:09:57;97582.16;;;21.85;37.33
77706;BME280;66874;45.274;5.880;2023-03-13T17:12:22;97552.47;;;21.80;37.19
77706;BME280;66874;45.274;5.880;2023-03-13T17:14:48;97564.06;;;21.69;37.92
77706;BME280;66874;45.274;5.880;2023-03-13T17:17:19;97571.16;;;21.59;37.79
77706;BME280;66874;45.274;5.880;2023-03-13T17:19:45;97577.16;;;21.51;38.24
77706;BME280;66874;45.274;5.880;2023-03-13T17:22:12;97545.78;;;21.45;38.16
77706;BME280;66874;45.274;5.880;2023-03-13T17:24:38;97549.28;;;21.45;38.22
77706;BME280;66874;45.274;5.880;2023-03-13T17:27:04;97530.50;;;21.37;38.10
77706;BME280;66874;45.274;5.880;2023-03-13T17:29:30;97549.59;;;21.31;38.43
77706;BME280;66874;45.274;5.880;2023-03-13T17:31:56;97551.00;;;21.26;38.72
77706;BME280;66874;45.274;5.880;2023-03-13T17:34:21;97545.94;;;21.23;38.89
77706;BME280;66874;45.274;5.880;2023-03-13T17:39:14;97544.47;;;21.09;39.09
77706;BME280;66874;45.274;5.880;2023-03-13T17:41:40;97541.69;;;21.10;38.92
77706;BME280;66874;45.274;5.880;2023-03-13T17:44:05;97524.44;;;21.05;39.16
77706;BME280;66874;45.274;5.880;2023-03-13T17:46:41;97534.22;;;21.04;39.00
77706;BME280;66874;45.274;5.880;2023-03-13T17:49:06;97526.81;;;21.08;38.49
77706;BME280;66874;45.274;5.880;2023-03-13T17:51:34;97504.84;;;21.06;39.04
77706;BME280;66874;45.274;5.880;2023-03-13T17:54:00;97519.63;;;20.98;38.83
77706;BME280;66874;45.274;5.880;2023-03-13T17:56:31;97518.53;;;21.01;39.06
77706;BME280;66874;45.274;5.880;2023-03-13T17:59:00;97512.81;;;21.06;39.11
77706;BME280;66874;45.274;5.880;2023-03-13T18:01:28;97508.88;;;21.00;39.19
77706;BME280;66874;45.274;5.880;2023-03-13T18:03:54;97505.50;;;20.98;39.17
77706;BME280;66874;45.274;5.880;2023-03-13T18:06:26;97491.78;;;20.93;39.14
77706;BME280;66874;45.274;5.880;2023-03-13T18:08:54;97495.66;;;20.89;39.49
77706;BME280;66874;45.274;5.880;2023-03-13T18:11:21;97503.50;;;20.90;39.17
77706;BME280;66874;45.274;5.880;2023-03-13T18:13:47;97490.78;;;20.94;39.47
77706;BME280;66874;45.274;5.880;2023-03-13T18:16:25;97477.91;;;20.89;39.38
77706;BME280;66874;45.274;5.880;2023-03-13T18:18:51;97496.91;;;20.85;39.67
77706;BME280;66874;45.274;5.880;2023-03-13T18:21:18;97482.53;;;20.87;39.57
77706;BME280;66874;45.274;5.880;2023-03-13T18:23:43;97457.88;;;20.85;39.80
77706;BME280;66874;45.274;5.880;2023-03-13T18:26:18;97466.00;;;20.84;39.65
77706;BME280;66874;45.274;5.880;2023-03-13T18:28:44;97459.84;;;20.83;39.41
77706;BME280;66874;45.274;5.880;2023-03-13T18:31:10;97457.88;;;20.85;39.40
77706;BME280;66874;45.274;5.880;2023-03-13T18:33:35;97471.03;;;20.87;39.14
77706;BME280;66874;45.274;5.880;2023-03-13T18:36:01;97473.00;;;20.85;39.50
77706;BME280;66874;45.274;5.880;2023-03-13T18:38:26;97470.47;;;20.83;39.26
77706;BME280;66874;45.274;5.880;2023-03-13T18:40:51;97472.16;;;20.84;39.29
77706;BME280;66874;45.274;5.880;2023-03-13T18:43:17;97471.16;;;20.85;39.35
77706;BME280;66874;45.274;5.880;2023-03-13T18:45:42;97479.28;;;20.84;39.30
77706;BME280;66874;45.274;5.880;2023-03-13T18:48:09;97472.16;;;20.84;39.65
77706;BME280;66874;45.274;5.880;2023-03-13T18:50:35;97488.75;;;20.77;39.60
77706;BME280;66874;45.274;5.880;2023-03-13T18:53:00;97517.16;;;20.76;39.66
77706;BME280;66874;45.274;5.880;2023-03-13T18:55:27;97506.88;;;20.71;39.53
77706;BME280;66874;45.274;5.880;2023-03-13T18:57:54;97511.50;;;20.69;39.96
77706;BME280;66874;45.274;5.880;2023-03-13T19:00:22;97516.81;;;20.69;39.96
77706;BME280;66874;45.274;5.880;2023-03-13T19:02:48;97524.94;;;20.68;40.23
77706;BME280;66874;45.274;5.880;2023-03-13T19:05:15;97545.22;;;20.69;39.90
77706;BME280;66874;45.274;5.880;2023-03-13T19:07:41;97570.81;;;20.70;40.25
77706;BME280;66874;45.274;5.880;2023-03-13T19:10:33;97564.78;;;20.68;40.86
77706;BME280;66874;45.274;5.880;2023-03-13T19:12:59;97548.56;;;20.71;40.49
77706;BME280;66874;45.274;5.880;2023-03-13T19:15:27;97548.13;;;20.66;40.22
77706;BME280;66874;45.274;5.880;2023-03-13T19:17:54;97593.63;;;20.72;40.18
77706;BME280;66874;45.274;5.880;2023-03-13T19:20:21;97534.03;;;20.75;40.48
77706;BME280;66874;45.274;5.880;2023-03-13T19:22:47;97541.81;;;20.67;40.38
77706;BME280;66874;45.274;5.880;2023-03-13T19:25:13;97542.66;;;20.67;40.48
77706;BME280;66874;45.274;5.880;2023-03-13T19:27:42;97541.97;;;20.65;40.55
77706;BME280;66874;45.274;5.880;2023-03-13T19:30:24;97527.38;;;20.60;40.82
77706;BME280;66874;45.274;5.880;2023-03-13T19:32:50;97522.44;;;20.55;40.90
77706;BME280;66874;45.274;5.880;2023-03-13T19:35:17;97550.84;;;20.55;40.95
77706;BME280;66874;45.274;5.880;2023-03-13T19:37:43;97525.25;;;20.54;41.26
77706;BME280;66874;45.274;5.880;2023-03-13T19:40:27;97511.47;;;20.48;41.25
77706;BME280;66874;45.274;5.880;2023-03-13T19:42:53;97498.72;;;20.42;41.25
77706;BME280;66874;45.274;5.880;2023-03-13T19:45:18;97501.47;;;20.41;41.36
77706;BME280;66874;45.274;5.880;2023-03-13T19:47:46;97491.44;;;20.44;41.31
77706;BME280;66874;45.274;5.880;2023-03-13T19:50:19;97503.03;;;20.43;41.28
77706;BME280;66874;45.274;5.880;2023-03-13T19:52:45;97484.00;;;20.38;41.46
77706;BME280;66874;45.274;5.880;2023-03-13T19:55:11;97473.19;;;20.30;41.43
77706;BME280;66874;45.274;5.880;2023-03-13T19:57:37;97462.81;;;20.27;41.63
77706;BME280;66874;45.274;5.880;2023-03-13T20:00:03;97462.97;;;20.26;41.71
77706;BME280;66874;45.274;5.880;2023-03-13T20:02:29;97453.53;;;20.21;42.21
77706;BME280;66874;45.274;5.880;2023-03-13T20:04:56;97460.38;;;20.14;42.46
77706;BME280;66874;45.274;5.880;2023-03-13T20:07:22;97480.88;;;20.12;42.80
77706;BME280;66874;45.274;5.880;2023-03-13T20:09:47;97454.13;;;20.04;43.52
77706;BME280;66874;45.274;5.880;2023-03-13T20:12:12;97452.94;;;19.76;45.28
77706;BME280;66874;45.274;5.880;2023-03-13T20:14:38;97440.91;;;19.49;46.64
77706;BME280;66874;45.274;5.880;2023-03-13T20:17:04;97448.31;;;19.12;48.16
77706;BME280;66874;45.274;5.880;2023-03-13T20:19:30;97458.00;;;18.80;49.18
77706;BME280;66874;45.274;5.880;2023-03-13T20:21:57;97451.06;;;18.66;50.41
77706;BME280;66874;45.274;5.880;2023-03-13T20:24:28;97462.69;;;18.41;51.25
77706;BME280;66874;45.274;5.880;2023-03-13T20:26:54;97473.03;;;18.33;52.11
77706;BME280;66874;45.274;5.880;2023-03-13T20:29:20;97452.56;;;18.23;51.80